Time;durP1;ratioP1;P1;durP2;ratioP2;P2;SDS_P1;SDS_P2;PMS_P1;PMS_P2;Temp;Humidity;BMP_temperature;BMP_pressure;BME280_temperature;BME280_humidity;BME280_pressure;Samples;Min_cycle;Max_cycle;Signal;HPM_P1;HPM_P2
2021/07/19 04:57:50;;;;;;;;;;;;;;;30.29;50.67;99622.59;1817100;77;20306;-62
2021/07/19 05:00:17;;;;;;;;;;;;;;;30.21;50.88;99625.56;1765076;81;20151;-62
2021/07/19 05:02:44;;;;;;;;;;;;;;;30.23;51.08;99617.59;1778321;78;22047;-62
2021/07/19 05:05:12;;;;;;;;;;;;;;;30.46;51.11;99612.34;1772153;78;20127;-63
2021/07/19 05:07:39;;;;;;;;;;;;;;;30.77;50.27;99608.69;1764925;81;20088;-62
2021/07/19 05:10:08;;;;;;;;;;;;;;;30.92;49.22;99606.91;1769772;78;21264;-62
2021/07/19 05:12:35;;;;;;;;;;;;;;;31.08;49.19;99610.30;1803761;78;20094;-64
2021/07/19 05:15:02;;;;;;;;;;;;;;;31.23;49.01;99599.64;1785573;78;21119;-66
2021/07/19 05:17:29;;;;;;;;;;;;;;;31.45;48.25;99600.75;1791122;78;20078;-68
2021/07/19 05:19:56;;;;;;;;;;;;;;;31.70;46.82;99597.33;1797613;78;20182;-68
2021/07/19 05:22:23;;;;;;;;;;;;;;;31.71;46.06;99605.70;1805604;78;20113;-69
2021/07/19 05:24:55;;;;;;;;;;;;;;;31.60;46.39;99601.09;1783726;78;20173;-66
2021/07/19 05:27:21;;;;;;;;;;;;;;;31.62;46.92;99611.10;1780282;78;21893;-69
2021/07/19 05:29:50;;;;;;;;;;;;;;;31.67;46.57;99602.33;1794958;78;20174;-64
2021/07/19 05:32:17;;;;;;;;;;;;;;;31.79;46.56;99603.19;1792492;78;20440;-64
2021/07/19 05:34:44;;;;;;;;;;;;;;;31.94;44.87;99611.63;1804922;78;20147;-65
2021/07/19 05:37:12;;;;;;;;;;;;;;;32.02;44.75;99612.58;1791655;78;20143;-66
2021/07/19 05:39:39;;;;;;;;;;;;;;;32.13;44.90;99616.33;1817097;78;21135;-64
2021/07/19 05:42:06;;;;;;;;;;;;;;;32.38;44.64;99616.09;1808602;78;20454;-67
2021/07/19 05:44:33;;;;;;;;;;;;;;;32.58;44.26;99615.67;1816005;78;20353;-67
2021/07/19 05:47:01;;;;;;;;;;;;;;;32.69;43.21;99614.28;1794691;80;20157;-67
2021/07/19 05:49:28;;;;;;;;;;;;;;;32.78;43.07;99618.80;1792070;78;20125;-68
2021/07/19 05:51:55;;;;;;;;;;;;;;;32.90;43.08;99611.45;1795912;78;21895;-67
2021/07/19 05:54:22;;;;;;;;;;;;;;;33.04;42.81;99608.75;1781892;78;20086;-66
2021/07/19 05:56:49;;;;;;;;;;;;;;;33.10;42.92;99606.97;1780858;78;20118;-66
2021/07/19 05:59:21;;;;;;;;;;;;;;;33.21;43.06;99609.28;1777445;79;20109;-66
2021/07/19 06:01:48;;;;;;;;;;;;;;;33.42;42.62;99616.17;1773224;78;20235;-65
2021/07/19 06:04:16;;;;;;;;;;;;;;;33.62;41.76;99624.30;1773618;78;20977;-66
2021/07/19 06:06:49;;;;;;;;;;;;;;;33.74;41.29;99620.45;1784384;79;20870;-66
2021/07/19 06:09:17;;;;;;;;;;;;;;;33.83;41.08;99618.71;1785369;78;20129;-64
2021/07/19 06:11:44;;;;;;;;;;;;;;;33.91;40.70;99617.77;1778517;79;20148;-64
2021/07/19 06:14:11;;;;;;;;;;;;;;;33.95;40.67;99610.80;1775761;79;20161;-64
2021/07/19 06:16:39;;;;;;;;;;;;;;;34.01;40.94;99612.48;1792390;79;21044;-64
2021/07/19 06:19:05;;;;;;;;;;;;;;;34.10;40.70;99615.58;1788857;78;20167;-64
2021/07/19 06:21:34;;;;;;;;;;;;;;;34.31;40.35;99618.88;1795687;78;20121;-64
2021/07/19 06:24:01;;;;;;;;;;;;;;;34.50;39.90;99619.89;1782742;79;20188;-64
2021/07/19 06:26:28;;;;;;;;;;;;;;;34.63;39.59;99610.05;1796723;79;20154;-68
2021/07/19 06:28:55;;;;;;;;;;;;;;;34.70;38.88;99618.25;1794118;78;22097;-65
2021/07/19 06:31:22;;;;;;;;;;;;;;;34.67;39.12;99608.47;1772462;80;20106;-66
2021/07/19 06:33:48;;;;;;;;;;;;;;;34.68;39.29;99612.27;1792260;78;20083;-66
2021/07/19 06:36:15;;;;;;;;;;;;;;;34.67;39.13;99617.94;1804895;78;20110;-67
2021/07/19 06:38:43;;;;;;;;;;;;;;;34.64;39.49;99608.44;1783766;80;20114;-66
2021/07/19 06:41:12;;;;;;;;;;;;;;;34.70;39.30;99603.91;1806241;79;22003;-67
2021/07/19 06:43:39;;;;;;;;;;;;;;;34.72;39.24;99605.82;1785624;78;20132;-68
2021/07/19 06:46:06;;;;;;;;;;;;;;;34.80;38.87;99601.85;1788112;78;20466;-64
2021/07/19 06:48:35;;;;;;;;;;;;;;;34.80;39.33;99608.08;1784373;79;20114;-64
2021/07/19 06:51:02;;;;;;;;;;;;;;;34.85;39.26;99604.08;1796175;79;20114;-66
2021/07/19 06:53:31;;;;;;;;;;;;;;;34.96;39.39;99600.94;1796050;79;21818;-66
2021/07/19 06:55:57;;;;;;;;;;;;;;;35.12;39.10;99595.14;1796751;79;20134;-69
2021/07/19 06:58:25;;;;;;;;;;;;;;;35.23;39.08;99595.48;1805798;79;20458;-68
2021/07/19 07:00:52;;;;;;;;;;;;;;;35.42;38.96;99596.77;1797288;79;20111;-67
2021/07/19 07:03:19;;;;;;;;;;;;;;;35.63;38.35;99603.13;1782920;80;20176;-67
2021/07/19 07:05:46;;;;;;;;;;;;;;;35.75;37.74;99604.58;1796248;79;21271;-70
2021/07/19 07:08:13;;;;;;;;;;;;;;;35.81;37.86;99606.00;1782248;79;20078;-70
2021/07/19 07:10:40;;;;;;;;;;;;;;;35.82;37.39;99597.61;1796304;79;20114;-66
2021/07/19 07:13:09;;;;;;;;;;;;;;;35.95;37.06;99608.53;1794148;79;20130;-69
2021/07/19 07:15:37;;;;;;;;;;;;;;;35.67;37.03;99598.83;1784188;79;20174;-66
2021/07/19 07:18:07;;;;;;;;;;;;;;;35.26;38.17;99599.03;1783493;79;21135;-69
2021/07/19 07:20:36;;;;;;;;;;;;;;;35.23;38.42;99594.13;1788308;79;20196;-67
2021/07/19 07:23:03;;;;;;;;;;;;;;;35.34;38.59;99598.06;1785141;78;20447;-62
2021/07/19 07:25:30;;;;;;;;;;;;;;;35.55;38.61;99593.62;1795895;79;20110;-63
2021/07/19 07:27:57;;;;;;;;;;;;;;;35.75;38.49;99595.64;1782196;79;20094;-63
2021/07/19 07:30:25;;;;;;;;;;;;;;;36.02;38.39;99593.64;1784788;79;21027;-62
2021/07/19 07:32:52;;;;;;;;;;;;;;;36.19;37.73;99588.05;1794309;78;21611;-62
2021/07/19 07:35:19;;;;;;;;;;;;;;;36.14;37.57;99596.15;1782272;79;20436;-62
2021/07/19 07:37:46;;;;;;;;;;;;;;;36.25;37.18;99593.77;1808901;79;20091;-64
2021/07/19 07:40:15;;;;;;;;;;;;;;;36.49;36.84;99599.56;1809209;79;20146;-63
2021/07/19 07:42:42;;;;;;;;;;;;;;;36.73;36.34;99592.62;1809285;79;21076;-65
2021/07/19 07:45:10;;;;;;;;;;;;;;;36.85;35.60;99599.13;1808585;79;20098;-67
2021/07/19 07:47:37;;;;;;;;;;;;;;;36.67;35.71;99596.91;1808689;79;20197;-65
2021/07/19 07:50:05;;;;;;;;;;;;;;;36.47;36.01;99600.38;1804309;79;20094;-68
2021/07/19 07:52:32;;;;;;;;;;;;;;;36.49;36.33;99596.03;1797936;78;20119;-65
2021/07/19 07:54:59;;;;;;;;;;;;;;;36.69;36.15;99592.04;1777546;79;20985;-64
2021/07/19 07:57:25;;;;;;;;;;;;;;;36.97;35.64;99595.63;1790042;78;20122;-65
2021/07/19 07:59:53;;;;;;;;;;;;;;;37.25;35.27;99599.73;1810764;78;20190;-66
2021/07/19 08:02:20;;;;;;;;;;;;;;;37.43;35.29;99596.22;1797456;78;20162;-66
2021/07/19 08:04:47;;;;;;;;;;;;;;;37.56;35.02;99594.31;1807578;78;20109;-65
2021/07/19 08:07:14;;;;;;;13.13;7.20;;;;;;;37.68;34.53;99598.91;1795551;78;21079;-65
2021/07/19 08:09:41;;;;;;;17.05;7.12;;;;;;;37.84;34.57;99594.27;1805809;78;20946;-66
2021/07/19 08:12:08;;;;;;;18.75;7.67;;;;;;;38.01;34.41;99596.92;1785902;78;20988;-65
2021/07/19 08:14:35;;;;;;;15.00;7.75;;;;;;;38.17;33.89;99588.75;1803234;78;21036;-66
2021/07/19 08:17:06;;;;;;;12.93;7.20;;;;;;;38.28;33.75;99593.88;1802159;78;20929;-66
2021/07/19 08:19:34;;;;;;;15.63;7.42;;;;;;;38.32;33.57;99591.42;1774217;78;21442;-68
2021/07/19 08:22:02;;;;;;;10.28;7.05;;;;;;;38.29;33.59;99591.42;1805738;78;20936;-68
2021/07/19 08:24:31;;;;;;;14.95;8.00;;;;;;;38.29;33.84;99591.42;1804665;78;20934;-70
2021/07/19 08:27:18;;;;;;;13.88;8.40;;;;;;;38.37;33.62;99595.48;1781992;78;20942;-71
2021/07/19 08:29:49;;;;;;;15.32;8.10;;;;;;;38.47;33.21;99585.06;1819186;78;20930;-71
2021/07/19 08:32:17;;;;;;;16.05;8.63;;;;;;;38.50;33.17;99579.88;1809529;78;21923;-70
2021/07/19 08:34:48;;;;;;;15.88;8.60;;;;;;;38.54;33.64;99581.50;1792710;78;21637;-70
2021/07/19 08:37:15;;;;;;;16.40;8.08;;;;;;;38.54;33.61;99574.69;1804857;78;21482;-70
2021/07/19 08:39:43;;;;;;;13.32;7.83;;;;;;;38.40;34.10;99569.59;1805252;78;20971;-69
2021/07/19 08:42:12;;;;;;;15.45;8.73;;;;;;;38.27;34.67;99566.95;1800424;78;21087;-70
2021/07/19 08:44:41;;;;;;;13.95;8.28;;;;;;;38.21;35.08;99563.98;1802456;78;21139;-71
2021/07/19 08:47:10;;;;;;;13.38;8.35;;;;;;;38.24;34.82;99560.72;1792732;78;21469;-68
2021/07/19 08:49:38;;;;;;;17.82;8.30;;;;;;;38.25;34.63;99549.56;1791677;78;21409;-70
2021/07/19 08:52:06;;;;;;;12.28;7.33;;;;;;;38.17;34.12;99549.32;1805388;78;20934;-70
2021/07/19 08:54:36;;;;;;;13.85;7.92;;;;;;;38.00;34.40;99541.47;1803696;78;20906;-70
2021/07/19 08:57:04;;;;;;;15.18;9.00;;;;;;;37.89;34.93;99543.44;1799042;78;22002;-68
2021/07/19 08:59:32;;;;;;;14.70;8.20;;;;;;;37.91;34.68;99545.33;1794802;79;20933;-72
2021/07/19 09:02:05;;;;;;;11.53;7.67;;;;;;;37.94;34.96;99545.33;1793868;80;20935;-68
2021/07/19 09:04:28;;;;;;;11.37;7.80;;;;;;;37.88;34.78;99544.52;1795567;78;20966;-70
2021/07/19 09:06:55;;;;;;;;;;;;;;;37.69;34.49;99538.05;1809733;78;21362;-66
2021/07/19 09:09:32;;;;;;;;;;;;;;;37.49;34.77;99532.65;1807446;78;21956;-68
2021/07/19 09:12:01;;;;;;;;;;;;;;;37.24;35.30;99532.12;1805576;79;20092;-67
2021/07/19 09:14:28;;;;;;;;;;;;;;;36.97;35.66;99529.13;1790632;79;20154;-71
2021/07/19 09:16:55;;;;;;;;;;;;;;;36.78;35.96;99530.77;1802686;79;20108;-70
2021/07/19 09:19:23;;;;;;;;;;;;;;;36.67;36.33;99538.58;1800730;78;20090;-69
2021/07/19 09:21:53;;;;;;;;;;;;;;;36.60;36.70;99547.52;1794590;79;21506;-69
2021/07/19 09:24:21;;;;;;;;;;;;;;;36.42;35.94;99544.75;1802911;79;20152;-66
2021/07/19 09:26:49;;;;;;;;;;;;;;;35.97;36.09;99557.60;1793627;79;20153;-66
2021/07/19 09:29:20;;;;;;;;;;;;;;;35.34;35.94;99554.74;1805180;79;20138;-68
2021/07/19 09:31:53;;;;;;;;;;;;;;;34.56;36.57;99568.86;1807283;79;20177;-70
2021/07/19 09:34:28;;;;;;;;;;;;;;;33.71;37.67;99577.73;1800382;78;21877;-68
2021/07/19 09:37:03;;;;;;;;;;;;;;;32.93;39.32;99600.19;1797849;79;20082;-70
2021/07/19 09:39:50;;;;;;;;;;;;;;;32.19;40.94;99621.30;1800987;79;20345;-70
2021/07/19 09:42:20;;;;;;;;;;;;;;;31.46;42.64;99623.39;1794716;79;20094;-69
2021/07/19 09:44:56;;;;;;;;;;;;;;;30.81;44.38;99598.27;1801845;79;20123;-71
2021/07/19 09:47:34;;;;;;;;;;;;;;;30.31;46.91;99590.95;1802744;79;21113;-73
2021/07/19 09:50:03;;;;;;;;;;;;;;;29.89;49.42;99601.50;1794187;79;20150;-70
2021/07/19 09:52:34;;;;;;;;;;;;;;;29.41;50.93;99632.98;1801130;79;20078;-69
2021/07/19 09:55:01;;;;;;;;;;;;;;;28.96;54.28;99655.01;1798075;79;20129;-69
2021/07/19 09:57:28;;;;;;;;;;;;;;;28.43;55.75;99672.61;1809756;78;20163;-70
2021/07/19 09:59:59;;;;;;;;;;;;;;;27.93;57.60;99655.91;1812754;78;20078;-72
2021/07/19 10:02:37;;;;;;;;;;;;;;;27.54;58.62;99645.50;1792669;79;20158;-73
2021/07/19 10:05:07;;;;;;;;;;;;;;;27.21;60.11;99638.76;1785029;78;20433;-73
2021/07/19 10:07:35;;;;;;;;;;;;;;;26.92;60.53;99615.86;1784522;79;20090;-70
2021/07/19 10:10:06;;;;;;;;;;;;;;;26.68;61.97;99612.41;1780782;79;20078;-72
2021/07/19 10:12:33;;;;;;;;;;;;;;;26.46;62.82;99627.20;1789270;80;21874;-68
2021/07/19 10:15:05;;;;;;;;;;;;;;;26.30;64.05;99640.05;1808624;78;20092;-72
2021/07/19 10:17:33;;;;;;;;;;;;;;;26.15;64.62;99646.31;1803576;78;20159;-71
2021/07/19 10:20:01;;;;;;;;;;;;;;;26.07;64.76;99646.47;1804295;78;20078;-74
2021/07/19 10:22:28;;;;;;;;;;;;;;;26.00;65.39;99655.44;1809150;78;20125;-72
2021/07/19 10:24:56;;;;;;;;;;;;;;;25.91;65.32;99668.95;1804989;78;22168;-73
2021/07/19 10:27:26;;;;;;;;;;;;;;;25.83;65.87;99667.75;1813185;79;20190;-73
2021/07/19 10:29:53;;;;;;;;;;;;;;;25.82;67.53;99683.95;1816083;78;20071;-67
2021/07/19 10:32:22;;;;;;;;;;;;;;;25.79;67.17;99695.00;1792314;79;20107;-68
2021/07/19 10:34:55;;;;;;;;;;;;;;;25.79;66.38;99694.49;1803490;79;20232;-67
2021/07/19 10:37:43;;;;;;;;;;;;;;;25.78;66.02;99692.84;1763655;79;21303;-67
2021/07/19 10:40:13;;;;;;;;;;;;;;;25.73;65.64;99679.26;1793556;79;20109;-67
2021/07/19 10:42:45;;;;;;;;;;;;;;;25.69;65.71;99661.16;1805304;79;20078;-67
2021/07/19 10:45:17;;;;;;;;;;;;;;;25.68;66.02;99656.84;1795011;78;20118;-67
2021/07/19 10:47:54;;;;;;;;;;;;;;;25.73;66.65;99665.92;1804514;79;20086;-65
2021/07/19 10:50:25;;;;;;;;;;;;;;;25.83;67.98;99666.93;1813075;78;21132;-66
2021/07/19 10:52:59;;;;;;;;;;;;;;;25.97;68.00;99672.69;1768980;80;20178;-66
2021/07/19 10:55:32;;;;;;;;;;;;;;;26.11;67.61;99662.91;1804075;79;20585;-66
2021/07/19 10:58:09;;;;;;;;;;;;;;;26.31;66.73;99661.74;1791501;79;20150;-66
2021/07/19 11:00:39;;;;;;;;;;;;;;;26.49;66.72;99663.36;1782562;79;20205;-66
2021/07/19 11:03:08;;;;;;;;;;;;;;;26.67;66.20;99670.34;1797910;79;21165;-67
2021/07/19 11:05:38;;;;;;;;;;;;;;;26.84;64.62;99670.80;1806316;79;20191;-66
2021/07/19 11:08:05;;;;;;;;;;;;;;;26.95;64.49;99676.91;1798043;79;20118;-66
2021/07/19 11:10:45;;;;;;;;;;;;;;;27.01;63.97;99682.83;1792086;79;20176;-67
2021/07/19 11:13:25;;;;;;;;;;;;;;;27.02;62.52;99687.15;1791702;79;20132;-67
2021/07/19 11:15:56;;;;;;;;;;;;;;;26.97;62.79;99682.92;1783247;79;21994;-72
2021/07/19 11:18:27;;;;;;;;;;;;;;;26.95;62.84;99690.27;1799258;79;20167;-66
2021/07/19 11:20:57;;;;;;;;;;;;;;;26.87;62.88;99694.45;1798183;78;20518;-67
2021/07/19 11:23:38;;;;;;;;;;;;;;;26.80;63.58;99697.61;1795662;79;20271;-67
2021/07/19 11:26:10;;;;;;;;;;;;;;;26.73;63.98;99697.60;1790242;79;20094;-72
2021/07/19 11:28:57;;;;;;;;;;;;;;;26.67;64.08;99689.55;1795949;79;20388;-75
2021/07/19 11:31:36;;;;;;;;;;;;;;;26.66;63.45;99686.06;1779849;79;20114;-72
2021/07/19 11:34:05;;;;;;;;;;;;;;;26.70;62.56;99694.50;1791307;79;20137;-71
2021/07/19 11:36:46;;;;;;;;;;;;;;;26.66;62.63;99688.73;1791469;80;20126;-68
2021/07/19 11:39:20;;;;;;;;;;;;;;;26.61;63.08;99694.34;1797519;78;20082;-69
2021/07/19 11:42:00;;;;;;;;;;;;;;;26.56;63.37;99697.61;1810132;78;21753;-70
2021/07/19 11:44:27;;;;;;;;;;;;;;;26.56;62.72;99700.28;1781946;80;20137;-70
2021/07/19 11:46:56;;;;;;;;;;;;;;;26.61;63.09;99708.53;1798828;78;20153;-71
2021/07/19 11:49:23;;;;;;;;;;;;;;;26.66;63.79;99708.76;1779730;78;20419;-69
2021/07/19 11:51:50;;;;;;;;;;;;;;;26.67;63.84;99705.58;1804251;79;20120;-66
2021/07/19 11:54:17;;;;;;;;;;;;;;;26.67;63.95;99710.92;1793094;79;21097;-66
2021/07/19 11:56:51;;;;;;;;;;;;;;;26.62;63.73;99722.19;1811831;78;20071;-67
2021/07/19 11:59:28;;;;;;;;;;;;;;;26.54;64.28;99724.51;1797835;79;20101;-66
2021/07/19 12:01:57;;;;;;;;;;;;;;;26.52;64.36;99732.41;1796799;79;20138;-66
2021/07/19 12:04:36;;;;;;;;;;;;;;;26.59;64.69;99741.28;1808393;79;20388;-67
2021/07/19 12:07:06;;;;;;;;;;;;;;;26.62;64.56;99740.89;1798221;78;21173;-70
2021/07/19 12:09:33;;;;;;;;;;;;;;;26.64;63.75;99740.70;1784494;80;20078;-72
2021/07/19 12:12:02;;;;;;;;;;;;;;;26.66;63.14;99738.14;1803461;79;20120;-70
2021/07/19 12:14:30;;;;;;;;;;;;;;;26.72;63.30;99741.36;1792043;78;20122;-70
2021/07/19 12:16:57;;;;;;;;;;;;;;;26.81;62.65;99728.64;1768848;80;20094;-71
2021/07/19 12:19:26;;;;;;;;;;;;;;;26.88;62.98;99722.31;1787867;79;21127;-69
2021/07/19 12:22:00;;;;;;;;;;;;;;;26.87;62.09;99717.16;1785674;78;20089;-68
2021/07/19 12:24:29;;;;;;;;;;;;;;;26.73;62.64;99724.83;1788298;80;20142;-71
2021/07/19 12:27:01;;;;;;;;;;;;;;;26.61;63.97;99729.06;1776912;80;20584;-68
2021/07/19 12:29:39;;;;;;;;;;;;;;;26.55;64.95;99730.16;1790180;79;20125;-70
2021/07/19 12:32:05;;;;;;;;;;;;;;;26.53;65.84;99728.20;1790533;80;21157;-71
2021/07/19 12:34:40;;;;;;;;;;;;;;;26.54;66.11;99722.34;1792303;80;20118;-72
2021/07/19 12:37:09;;;;;;;;;;;;;;;26.52;67.30;99712.37;1798675;79;20420;-69
2021/07/19 12:39:42;;;;;;;;;;;;;;;26.51;67.05;99712.06;1795722;79;20105;-71
2021/07/19 12:42:19;;;;;;;;;;;;;;;26.47;67.71;99706.28;1794772;80;20455;-68
2021/07/19 12:44:52;;;;;;;;;;;;;;;26.45;68.30;99702.16;1804599;78;21168;-72
2021/07/19 12:47:22;;;;;;;;;;;;;;;26.43;67.29;99706.36;1786546;80;20134;-71
2021/07/19 12:49:49;;;;;;;;;;;;;;;26.37;68.13;99703.67;1789878;80;20162;-72
2021/07/19 12:52:26;;;;;;;;;;;;;;;26.26;68.72;99699.67;1795489;80;20094;-69
2021/07/19 12:54:56;;;;;;;;;;;;;;;26.16;70.17;99708.52;1789844;79;20150;-69
2021/07/19 12:57:24;;;;;;;;;;;;;;;26.04;69.89;99701.55;1789632;80;21153;-70
2021/07/19 12:59:52;;;;;;;;;;;;;;;25.91;70.95;99698.80;1790771;80;20094;-69
2021/07/19 13:02:20;;;;;;;;;;;;;;;25.81;72.24;99688.45;1764858;80;20101;-69
2021/07/19 13:04:53;;;;;;;;;;;;;;;25.77;73.39;99677.03;1791454;79;20142;-69
2021/07/19 13:07:27;;;;;;;;;;;;;;;25.73;72.79;99653.92;1792933;79;20102;-69
2021/07/19 13:09:57;;;;;;;;;;;;;;;25.68;73.71;99634.17;1794451;80;21125;-68
2021/07/19 13:12:24;;;;;;;;;;;;;;;25.62;73.96;99624.25;1794907;79;20174;-68
2021/07/19 13:14:51;;;;;;;;;;;;;;;25.47;75.21;99602.52;1791960;79;20154;-68
2021/07/19 13:17:23;;;;;;;;;;;;;;;25.39;75.29;99597.82;1793986;78;20110;-70
2021/07/19 13:19:55;;;;;;;;;;;;;;;25.34;76.00;99605.05;1801592;79;20490;-66
2021/07/19 13:22:27;;;;;;;;;;;;;;;25.34;77.01;99617.56;1792727;78;22723;-69
2021/07/19 13:24:54;;;;;;;;;;;;;;;25.32;77.63;99625.75;1802039;79;20107;-69
2021/07/19 13:27:22;;;;;;;;;;;;;;;25.36;78.70;99613.69;1792513;79;20399;-68
2021/07/19 13:29:53;;;;;;;;;;;;;;;25.43;77.09;99621.75;1804629;79;20209;-69
2021/07/19 13:32:22;;;;;;;;;;;;;;;25.48;76.89;99616.67;1790040;80;20135;-67
2021/07/19 13:35:01;;;;;;;;;;;;;;;25.55;77.52;99604.22;1789351;80;21987;-65
2021/07/19 13:37:30;;;;;;;;;;;;;;;25.67;76.95;99601.86;1800967;79;20140;-67
2021/07/19 13:40:08;;;;;;;;;;;;;;;25.80;77.06;99600.13;1788545;79;20264;-68
2021/07/19 13:42:35;;;;;;;;;;;;;;;25.92;76.86;99599.08;1784223;80;20101;-68
2021/07/19 13:45:03;;;;;;;;;;;;;;;26.06;76.32;99591.95;1783206;79;20133;-68
2021/07/19 13:47:30;;;;;;;;;;;;;;;26.14;75.67;99565.94;1784957;79;21190;-69
2021/07/19 13:49:57;;;;;;;;;;;;;;;26.22;74.84;99563.11;1785737;78;20104;-71
2021/07/19 13:52:24;;;;;;;;;;;;;;;26.33;74.62;99572.95;1804946;78;20453;-73
2021/07/19 13:54:50;;;;;;;;;;;;;;;26.41;74.49;99561.56;1804319;78;20075;-72
2021/07/19 13:57:18;;;;;;;;;;;;;;;26.55;74.04;99570.45;1802461;78;20126;-69
